sensor_id;sensor_type;location;lat;lon;timestamp;P1;durP1;ratioP1;P2;durP2;ratioP2
56269;SDS011;42176;43.240;27.880;2023-03-03T00:02:21;15.25;;;7.63;;
56269;SDS011;42176;43.240;27.880;2023-03-03T00:04:46;7.32;;;4.45;;
56269;SDS011;42176;43.240;27.880;2023-03-03T00:07:11;9.45;;;5.38;;
56269;SDS011;42176;43.240;27.880;2023-03-03T00:09:39;13.88;;;6.35;;
56269;SDS011;42176;43.240;27.880;2023-03-03T00:12:16;13.30;;;7.10;;
56269;SDS011;42176;43.240;27.880;2023-03-03T00:17:33;8.55;;;4.43;;
56269;SDS011;42176;43.240;27.880;2023-03-03T00:19:58;12.40;;;5.90;;
56269;SDS011;42176;43.240;27.880;2023-03-03T00:22:46;13.35;;;7.45;;
56269;SDS011;42176;43.240;27.880;2023-03-03T00:27:43;11.35;;;5.70;;
56269;SDS011;42176;43.240;27.880;2023-03-03T00:32:37;10.93;;;5.78;;
56269;SDS011;42176;43.240;27.880;2023-03-03T00:35:27;10.05;;;5.03;;
56269;SDS011;42176;43.240;27.880;2023-03-03T00:37:58;14.85;;;7.15;;
56269;SDS011;42176;43.240;27.880;2023-03-03T00:42:57;11.38;;;5.82;;
56269;SDS011;42176;43.240;27.880;2023-03-03T00:47:49;14.25;;;6.70;;
56269;SDS011;42176;43.240;27.880;2023-03-03T00:50:29;12.07;;;7.47;;
56269;SDS011;42176;43.240;27.880;2023-03-03T00:53:03;8.98;;;4.32;;
56269;SDS011;42176;43.240;27.880;2023-03-03T00:55:35;10.80;;;5.18;;
56269;SDS011;42176;43.240;27.880;2023-03-03T00:58:02;11.75;;;5.68;;
56269;SDS011;42176;43.240;27.880;2023-03-03T01:00:28;15.55;;;5.88;;
56269;SDS011;42176;43.240;27.880;2023-03-03T01:02:53;14.73;;;7.93;;
56269;SDS011;42176;43.240;27.880;2023-03-03T01:08:03;12.23;;;4.82;;
56269;SDS011;42176;43.240;27.880;2023-03-03T01:10:29;14.63;;;6.68;;
56269;SDS011;42176;43.240;27.880;2023-03-03T01:12:58;7.05;;;4.68;;
56269;SDS011;42176;43.240;27.880;2023-03-03T01:15:24;18.13;;;4.82;;
56269;SDS011;42176;43.240;27.880;2023-03-03T01:17:49;14.40;;;7.50;;
56269;SDS011;42176;43.240;27.880;2023-03-03T01:20:15;15.90;;;7.25;;
56269;SDS011;42176;43.240;27.880;2023-03-03T01:22:41;12.27;;;5.18;;
56269;SDS011;42176;43.240;27.880;2023-03-03T01:25:07;13.93;;;5.50;;
56269;SDS011;42176;43.240;27.880;2023-03-03T01:27:34;9.05;;;4.90;;
56269;SDS011;42176;43.240;27.880;2023-03-03T01:30:00;7.35;;;4.45;;
56269;SDS011;42176;43.240;27.880;2023-03-03T01:32:26;12.68;;;5.80;;
56269;SDS011;42176;43.240;27.880;2023-03-03T01:34:52;12.15;;;5.85;;
56269;SDS011;42176;43.240;27.880;2023-03-03T01:37:18;10.10;;;4.60;;
56269;SDS011;42176;43.240;27.880;2023-03-03T01:39:47;8.68;;;3.97;;
56269;SDS011;42176;43.240;27.880;2023-03-03T01:42:16;15.25;;;7.38;;
56269;SDS011;42176;43.240;27.880;2023-03-03T01:44:42;6.43;;;3.50;;
56269;SDS011;42176;43.240;27.880;2023-03-03T01:47:10;8.90;;;4.20;;
56269;SDS011;42176;43.240;27.880;2023-03-03T01:49:49;11.10;;;6.40;;
56269;SDS011;42176;43.240;27.880;2023-03-03T01:54:52;9.20;;;5.03;;
56269;SDS011;42176;43.240;27.880;2023-03-03T01:57:29;8.50;;;4.78;;
56269;SDS011;42176;43.240;27.880;2023-03-03T01:59:57;14.32;;;7.72;;
56269;SDS011;42176;43.240;27.880;2023-03-03T02:02:26;11.95;;;5.13;;
56269;SDS011;42176;43.240;27.880;2023-03-03T02:04:52;8.50;;;5.00;;
56269;SDS011;42176;43.240;27.880;2023-03-03T02:07:18;14.77;;;6.75;;
56269;SDS011;42176;43.240;27.880;2023-03-03T02:12:33;10.57;;;5.25;;
56269;SDS011;42176;43.240;27.880;2023-03-03T02:15:14;7.17;;;3.93;;
56269;SDS011;42176;43.240;27.880;2023-03-03T02:17:48;11.38;;;6.43;;
56269;SDS011;42176;43.240;27.880;2023-03-03T02:28:20;9.57;;;4.80;;
56269;SDS011;42176;43.240;27.880;2023-03-03T02:30:47;10.20;;;4.40;;
56269;SDS011;42176;43.240;27.880;2023-03-03T02:33:13;8.25;;;5.88;;
56269;SDS011;42176;43.240;27.880;2023-03-03T02:35:38;12.93;;;6.65;;
56269;SDS011;42176;43.240;27.880;2023-03-03T02:40:43;11.90;;;4.95;;
56269;SDS011;42176;43.240;27.880;2023-03-03T02:43:16;10.77;;;6.15;;
56269;SDS011;42176;43.240;27.880;2023-03-03T02:45:44;10.32;;;4.22;;
56269;SDS011;42176;43.240;27.880;2023-03-03T02:48:09;10.85;;;5.10;;
56269;SDS011;42176;43.240;27.880;2023-03-03T02:50:35;7.80;;;4.43;;
56269;SDS011;42176;43.240;27.880;2023-03-03T02:53:01;10.38;;;6.90;;
56269;SDS011;42176;43.240;27.880;2023-03-03T02:55:26;9.73;;;3.70;;
56269;SDS011;42176;43.240;27.880;2023-03-03T02:57:52;12.40;;;5.45;;
56269;SDS011;42176;43.240;27.880;2023-03-03T03:00:17;9.27;;;4.95;;
56269;SDS011;42176;43.240;27.880;2023-03-03T03:02:43;9.68;;;5.15;;
56269;SDS011;42176;43.240;27.880;2023-03-03T03:05:08;13.43;;;7.20;;
56269;SDS011;42176;43.240;27.880;2023-03-03T03:07:34;6.65;;;3.35;;
56269;SDS011;42176;43.240;27.880;2023-03-03T03:09:59;8.68;;;4.82;;
56269;SDS011;42176;43.240;27.880;2023-03-03T03:12:25;13.82;;;5.05;;
56269;SDS011;42176;43.240;27.880;2023-03-03T03:14:50;13.65;;;6.55;;
56269;SDS011;42176;43.240;27.880;2023-03-03T03:17:16;8.88;;;4.43;;
56269;SDS011;42176;43.240;27.880;2023-03-03T03:19:41;14.38;;;4.72;;
56269;SDS011;42176;43.240;27.880;2023-03-03T03:22:07;12.15;;;5.30;;
56269;SDS011;42176;43.240;27.880;2023-03-03T03:24:32;13.13;;;6.85;;
56269;SDS011;42176;43.240;27.880;2023-03-03T03:26:57;13.98;;;7.38;;
56269;SDS011;42176;43.240;27.880;2023-03-03T03:29:23;15.20;;;4.88;;
56269;SDS011;42176;43.240;27.880;2023-03-03T03:31:48;9.80;;;5.13;;
56269;SDS011;42176;43.240;27.880;2023-03-03T03:34:14;10.45;;;6.63;;
56269;SDS011;42176;43.240;27.880;2023-03-03T03:36:39;10.23;;;4.82;;
56269;SDS011;42176;43.240;27.880;2023-03-03T03:39:04;11.13;;;5.93;;
56269;SDS011;42176;43.240;27.880;2023-03-03T03:41:30;9.43;;;5.07;;
56269;SDS011;42176;43.240;27.880;2023-03-03T03:43:56;12.40;;;5.85;;
56269;SDS011;42176;43.240;27.880;2023-03-03T03:46:22;11.25;;;6.03;;
56269;SDS011;42176;43.240;27.880;2023-03-03T03:48:47;11.25;;;4.63;;
56269;SDS011;42176;43.240;27.880;2023-03-03T03:51:13;22.95;;;6.72;;
56269;SDS011;42176;43.240;27.880;2023-03-03T03:53:38;13.63;;;7.72;;
56269;SDS011;42176;43.240;27.880;2023-03-03T03:56:03;13.15;;;7.78;;
56269;SDS011;42176;43.240;27.880;2023-03-03T03:58:29;10.15;;;5.85;;
56269;SDS011;42176;43.240;27.880;2023-03-03T04:01:00;15.15;;;5.80;;
56269;SDS011;42176;43.240;27.880;2023-03-03T04:03:30;15.45;;;7.95;;
56269;SDS011;42176;43.240;27.880;2023-03-03T04:05:55;15.57;;;7.63;;
56269;SDS011;42176;43.240;27.880;2023-03-03T04:08:21;9.82;;;5.13;;
56269;SDS011;42176;43.240;27.880;2023-03-03T04:10:46;10.95;;;5.70;;
56269;SDS011;42176;43.240;27.880;2023-03-03T04:13:12;13.32;;;6.20;;
56269;SDS011;42176;43.240;27.880;2023-03-03T04:15:37;10.35;;;5.82;;
56269;SDS011;42176;43.240;27.880;2023-03-03T04:18:03;15.63;;;7.45;;
56269;SDS011;42176;43.240;27.880;2023-03-03T04:20:28;6.95;;;3.67;;
56269;SDS011;42176;43.240;27.880;2023-03-03T04:22:55;11.45;;;6.05;;
56269;SDS011;42176;43.240;27.880;2023-03-03T04:25:21;12.35;;;5.45;;
56269;SDS011;42176;43.240;27.880;2023-03-03T04:27:46;16.17;;;8.55;;
56269;SDS011;42176;43.240;27.880;2023-03-03T04:30:12;14.35;;;8.57;;
56269;SDS011;42176;43.240;27.880;2023-03-03T04:32:39;20.92;;;7.50;;
56269;SDS011;42176;43.240;27.880;2023-03-03T04:35:05;17.52;;;7.45;;
56269;SDS011;42176;43.240;27.880;2023-03-03T04:37:31;14.02;;;6.88;;
56269;SDS011;42176;43.240;27.880;2023-03-03T04:39:56;12.98;;;6.10;;
56269;SDS011;42176;43.240;27.880;2023-03-03T04:42:22;12.65;;;6.00;;
56269;SDS011;42176;43.240;27.880;2023-03-03T04:44:47;10.43;;;4.97;;
56269;SDS011;42176;43.240;27.880;2023-03-03T04:47:13;13.68;;;7.47;;
56269;SDS011;42176;43.240;27.880;2023-03-03T04:49:38;11.38;;;6.43;;
56269;SDS011;42176;43.240;27.880;2023-03-03T04:52:04;14.45;;;6.90;;
56269;SDS011;42176;43.240;27.880;2023-03-03T04:54:29;13.32;;;7.03;;
56269;SDS011;42176;43.240;27.880;2023-03-03T04:56:55;19.00;;;6.70;;
56269;SDS011;42176;43.240;27.880;2023-03-03T04:59:20;15.32;;;6.65;;
56269;SDS011;42176;43.240;27.880;2023-03-03T05:01:46;15.68;;;8.15;;
56269;SDS011;42176;43.240;27.880;2023-03-03T05:04:11;15.20;;;9.82;;
56269;SDS011;42176;43.240;27.880;2023-03-03T05:06:37;14.00;;;6.90;;
56269;SDS011;42176;43.240;27.880;2023-03-03T05:09:02;11.45;;;5.30;;
56269;SDS011;42176;43.240;27.880;2023-03-03T05:11:28;17.35;;;9.35;;
56269;SDS011;42176;43.240;27.880;2023-03-03T05:13:53;11.52;;;5.88;;
56269;SDS011;42176;43.240;27.880;2023-03-03T05:16:19;12.60;;;6.18;;
56269;SDS011;42176;43.240;27.880;2023-03-03T05:18:44;14.52;;;8.20;;
56269;SDS011;42176;43.240;27.880;2023-03-03T05:21:10;19.05;;;9.00;;
56269;SDS011;42176;43.240;27.880;2023-03-03T05:23:36;17.50;;;7.05;;
56269;SDS011;42176;43.240;27.880;2023-03-03T05:26:02;15.77;;;6.38;;
56269;SDS011;42176;43.240;27.880;2023-03-03T05:28:27;24.00;;;11.60;;
56269;SDS011;42176;43.240;27.880;2023-03-03T05:30:52;11.30;;;6.03;;
56269;SDS011;42176;43.240;27.880;2023-03-03T05:33:18;15.10;;;6.80;;
56269;SDS011;42176;43.240;27.880;2023-03-03T05:35:43;14.13;;;6.50;;
56269;SDS011;42176;43.240;27.880;2023-03-03T05:38:09;11.25;;;5.85;;
56269;SDS011;42176;43.240;27.880;2023-03-03T05:40:35;11.88;;;6.20;;
56269;SDS011;42176;43.240;27.880;2023-03-03T05:43:01;16.73;;;6.68;;
56269;SDS011;42176;43.240;27.880;2023-03-03T05:45:26;12.60;;;5.78;;
56269;SDS011;42176;43.240;27.880;2023-03-03T05:47:52;18.50;;;10.38;;
56269;SDS011;42176;43.240;27.880;2023-03-03T05:50:19;11.90;;;6.00;;
56269;SDS011;42176;43.240;27.880;2023-03-03T05:52:50;13.23;;;6.82;;
56269;SDS011;42176;43.240;27.880;2023-03-03T05:55:16;13.40;;;7.18;;
56269;SDS011;42176;43.240;27.880;2023-03-03T05:57:43;21.85;;;10.02;;
56269;SDS011;42176;43.240;27.880;2023-03-03T06:00:08;22.02;;;10.68;;
56269;SDS011;42176;43.240;27.880;2023-03-03T06:02:35;12.60;;;6.97;;
56269;SDS011;42176;43.240;27.880;2023-03-03T06:05:00;14.57;;;7.10;;
56269;SDS011;42176;43.240;27.880;2023-03-03T06:07:27;18.63;;;9.88;;
56269;SDS011;42176;43.240;27.880;2023-03-03T06:09:53;7.18;;;4.97;;
56269;SDS011;42176;43.240;27.880;2023-03-03T06:12:18;17.17;;;7.43;;
56269;SDS011;42176;43.240;27.880;2023-03-03T06:14:44;14.43;;;6.53;;
56269;SDS011;42176;43.240;27.880;2023-03-03T06:17:09;21.40;;;11.05;;
56269;SDS011;42176;43.240;27.880;2023-03-03T06:19:35;11.90;;;6.57;;
56269;SDS011;42176;43.240;27.880;2023-03-03T06:22:01;18.65;;;8.55;;
56269;SDS011;42176;43.240;27.880;2023-03-03T06:24:26;11.82;;;6.38;;
56269;SDS011;42176;43.240;27.880;2023-03-03T06:26:55;21.17;;;12.20;;
56269;SDS011;42176;43.240;27.880;2023-03-03T06:29:21;18.35;;;8.43;;
56269;SDS011;42176;43.240;27.880;2023-03-03T06:31:46;14.82;;;8.50;;
56269;SDS011;42176;43.240;27.880;2023-03-03T06:34:12;20.27;;;11.05;;
56269;SDS011;42176;43.240;27.880;2023-03-03T06:36:37;13.82;;;7.80;;
56269;SDS011;42176;43.240;27.880;2023-03-03T06:39:03;14.65;;;7.93;;
56269;SDS011;42176;43.240;27.880;2023-03-03T06:41:28;17.63;;;7.00;;
56269;SDS011;42176;43.240;27.880;2023-03-03T06:43:54;17.95;;;9.48;;
56269;SDS011;42176;43.240;27.880;2023-03-03T06:46:20;15.25;;;7.45;;
56269;SDS011;42176;43.240;27.880;2023-03-03T06:48:45;12.95;;;6.65;;
56269;SDS011;42176;43.240;27.880;2023-03-03T06:51:53;14.95;;;6.97;;
56269;SDS011;42176;43.240;27.880;2023-03-03T06:54:05;13.07;;;5.53;;
56269;SDS011;42176;43.240;27.880;2023-03-03T06:56:36;16.98;;;7.78;;
56269;SDS011;42176;43.240;27.880;2023-03-03T06:59:04;10.52;;;6.03;;
56269;SDS011;42176;43.240;27.880;2023-03-03T07:01:35;14.38;;;6.80;;
56269;SDS011;42176;43.240;27.880;2023-03-03T07:04:06;14.77;;;7.85;;
56269;SDS011;42176;43.240;27.880;2023-03-03T07:06:59;13.73;;;6.70;;
56269;SDS011;42176;43.240;27.880;2023-03-03T07:09:35;11.20;;;5.63;;
56269;SDS011;42176;43.240;27.880;2023-03-03T07:12:01;13.60;;;6.60;;
56269;SDS011;42176;43.240;27.880;2023-03-03T07:14:35;14.60;;;8.45;;
56269;SDS011;42176;43.240;27.880;2023-03-03T07:17:17;9.25;;;5.82;;
56269;SDS011;42176;43.240;27.880;2023-03-03T07:19:44;15.50;;;6.38;;
56269;SDS011;42176;43.240;27.880;2023-03-03T07:22:14;13.05;;;6.82;;
56269;SDS011;42176;43.240;27.880;2023-03-03T07:24:45;16.42;;;6.25;;
56269;SDS011;42176;43.240;27.880;2023-03-03T07:27:16;13.13;;;7.32;;
56269;SDS011;42176;43.240;27.880;2023-03-03T07:29:49;10.48;;;5.30;;
56269;SDS011;42176;43.240;27.880;2023-03-03T07:35:17;9.27;;;4.50;;
56269;SDS011;42176;43.240;27.880;2023-03-03T07:37:54;10.15;;;4.47;;
56269;SDS011;42176;43.240;27.880;2023-03-03T07:40:28;10.63;;;4.78;;
56269;SDS011;42176;43.240;27.880;2023-03-03T07:42:58;23.23;;;11.07;;
56269;SDS011;42176;43.240;27.880;2023-03-03T07:45:26;12.00;;;6.53;;
56269;SDS011;42176;43.240;27.880;2023-03-03T07:48:36;14.30;;;6.40;;
56269;SDS011;42176;43.240;27.880;2023-03-03T07:50:48;12.68;;;6.25;;
56269;SDS011;42176;43.240;27.880;2023-03-03T07:53:18;10.40;;;5.45;;
56269;SDS011;42176;43.240;27.880;2023-03-03T07:55:50;11.98;;;5.78;;
56269;SDS011;42176;43.240;27.880;2023-03-03T08:05:11;10.98;;;5.85;;
56269;SDS011;42176;43.240;27.880;2023-03-03T08:07:24;15.43;;;6.63;;
56269;SDS011;42176;43.240;27.880;2023-03-03T08:17:43;9.95;;;5.80;;
56269;SDS011;42176;43.240;27.880;2023-03-03T08:25:28;12.02;;;5.95;;
56269;SDS011;42176;43.240;27.880;2023-03-03T08:27:53;10.43;;;5.60;;
56269;SDS011;42176;43.240;27.880;2023-03-03T08:30:18;11.73;;;5.65;;
56269;SDS011;42176;43.240;27.880;2023-03-03T08:32:44;14.60;;;6.82;;
56269;SDS011;42176;43.240;27.880;2023-03-03T08:35:09;12.52;;;5.97;;
56269;SDS011;42176;43.240;27.880;2023-03-03T08:37:35;13.73;;;6.32;;
56269;SDS011;42176;43.240;27.880;2023-03-03T08:40:00;9.00;;;6.30;;
56269;SDS011;42176;43.240;27.880;2023-03-03T08:42:26;12.85;;;7.07;;
56269;SDS011;42176;43.240;27.880;2023-03-03T08:44:54;13.02;;;6.35;;
56269;SDS011;42176;43.240;27.880;2023-03-03T08:47:19;11.77;;;5.75;;
56269;SDS011;42176;43.240;27.880;2023-03-03T08:49:48;12.73;;;7.40;;
56269;SDS011;42176;43.240;27.880;2023-03-03T08:52:13;10.63;;;5.72;;
56269;SDS011;42176;43.240;27.880;2023-03-03T08:54:39;11.38;;;6.68;;
56269;SDS011;42176;43.240;27.880;2023-03-03T08:57:04;13.27;;;6.45;;
56269;SDS011;42176;43.240;27.880;2023-03-03T08:59:29;20.65;;;9.23;;
56269;SDS011;42176;43.240;27.880;2023-03-03T09:01:55;17.23;;;7.70;;
56269;SDS011;42176;43.240;27.880;2023-03-03T09:04:20;11.35;;;7.28;;
56269;SDS011;42176;43.240;27.880;2023-03-03T09:06:46;20.00;;;8.32;;
56269;SDS011;42176;43.240;27.880;2023-03-03T09:09:12;15.63;;;7.80;;
56269;SDS011;42176;43.240;27.880;2023-03-03T09:11:37;13.73;;;8.07;;
56269;SDS011;42176;43.240;27.880;2023-03-03T09:14:09;16.73;;;8.43;;
56269;SDS011;42176;43.240;27.880;2023-03-03T09:16:40;16.15;;;8.13;;
56269;SDS011;42176;43.240;27.880;2023-03-03T09:19:20;16.33;;;8.18;;
56269;SDS011;42176;43.240;27.880;2023-03-03T09:21:45;14.45;;;8.50;;
56269;SDS011;42176;43.240;27.880;2023-03-03T09:24:17;16.48;;;7.60;;
56269;SDS011;42176;43.240;27.880;2023-03-03T09:26:50;19.38;;;8.10;;
56269;SDS011;42176;43.240;27.880;2023-03-03T09:29:59;16.33;;;8.65;;
56269;SDS011;42176;43.240;27.880;2023-03-03T09:34:54;20.13;;;8.73;;
56269;SDS011;42176;43.240;27.880;2023-03-03T09:37:22;22.25;;;9.05;;
56269;SDS011;42176;43.240;27.880;2023-03-03T09:39:52;18.47;;;8.33;;
56269;SDS011;42176;43.240;27.880;2023-03-03T09:48:19;16.98;;;8.23;;
56269;SDS011;42176;43.240;27.880;2023-03-03T09:51:01;13.43;;;8.25;;
56269;SDS011;42176;43.240;27.880;2023-03-03T09:56:33;15.27;;;8.35;;
56269;SDS011;42176;43.240;27.880;2023-03-03T09:59:14;17.58;;;7.68;;
56269;SDS011;42176;43.240;27.880;2023-03-03T10:01:58;16.48;;;7.60;;
56269;SDS011;42176;43.240;27.880;2023-03-03T10:12:39;14.85;;;6.63;;
56269;SDS011;42176;43.240;27.880;2023-03-03T10:17:53;10.10;;;5.25;;
56269;SDS011;42176;43.240;27.880;2023-03-03T10:52:02;15.02;;;6.25;;
56269;SDS011;42176;43.240;27.880;2023-03-03T11:05:39;10.48;;;5.53;;
56269;SDS011;42176;43.240;27.880;2023-03-03T11:08:25;10.00;;;5.85;;
56269;SDS011;42176;43.240;27.880;2023-03-03T11:13:33;15.68;;;5.15;;
56269;SDS011;42176;43.240;27.880;2023-03-03T11:16:19;16.48;;;5.57;;
56269;SDS011;42176;43.240;27.880;2023-03-03T11:24:41;11.05;;;5.70;;
56269;SDS011;42176;43.240;27.880;2023-03-03T11:40:04;5.17;;;3.43;;
56269;SDS011;42176;43.240;27.880;2023-03-03T11:45:38;10.30;;;4.63;;
56269;SDS011;42176;43.240;27.880;2023-03-03T11:50:44;10.77;;;5.50;;
56269;SDS011;42176;43.240;27.880;2023-03-03T11:55:51;9.38;;;5.28;;
56269;SDS011;42176;43.240;27.880;2023-03-03T12:03:33;7.65;;;3.65;;
56269;SDS011;42176;43.240;27.880;2023-03-03T12:11:02;9.75;;;4.43;;
56269;SDS011;42176;43.240;27.880;2023-03-03T12:16:37;7.53;;;4.50;;
56269;SDS011;42176;43.240;27.880;2023-03-03T12:41:11;8.63;;;4.72;;
56269;SDS011;42176;43.240;27.880;2023-03-03T12:44:02;7.30;;;3.72;;
56269;SDS011;42176;43.240;27.880;2023-03-03T12:49:26;15.10;;;5.00;;
56269;SDS011;42176;43.240;27.880;2023-03-03T12:57:24;7.35;;;4.22;;
56269;SDS011;42176;43.240;27.880;2023-03-03T13:00:20;9.70;;;5.65;;
56269;SDS011;42176;43.240;27.880;2023-03-03T13:02:57;6.38;;;3.40;;
56269;SDS011;42176;43.240;27.880;2023-03-03T13:13:52;6.25;;;3.75;;
56269;SDS011;42176;43.240;27.880;2023-03-03T13:16:48;8.75;;;4.50;;
56269;SDS011;42176;43.240;27.880;2023-03-03T13:19:35;12.27;;;4.00;;
56269;SDS011;42176;43.240;27.880;2023-03-03T13:22:16;15.05;;;4.93;;
56269;SDS011;42176;43.240;27.880;2023-03-03T13:27:44;6.72;;;3.47;;
56269;SDS011;42176;43.240;27.880;2023-03-03T13:30:20;8.35;;;4.75;;
56269;SDS011;42176;43.240;27.880;2023-03-03T13:35:49;9.67;;;4.87;;
56269;SDS011;42176;43.240;27.880;2023-03-03T13:38:20;8.85;;;4.45;;
56269;SDS011;42176;43.240;27.880;2023-03-03T13:41:01;11.90;;;4.75;;
56269;SDS011;42176;43.240;27.880;2023-03-03T13:43:51;8.45;;;5.22;;
56269;SDS011;42176;43.240;27.880;2023-03-03T13:57:51;6.45;;;4.40;;
56269;SDS011;42176;43.240;27.880;2023-03-03T14:06:50;8.23;;;4.18;;
56269;SDS011;42176;43.240;27.880;2023-03-03T14:12:20;4.75;;;3.05;;
56269;SDS011;42176;43.240;27.880;2023-03-03T14:14:59;9.50;;;4.47;;
56269;SDS011;42176;43.240;27.880;2023-03-03T14:17:52;7.72;;;4.35;;
56269;SDS011;42176;43.240;27.880;2023-03-03T14:20:28;11.45;;;5.10;;
56269;SDS011;42176;43.240;27.880;2023-03-03T14:22:57;8.48;;;5.53;;
56269;SDS011;42176;43.240;27.880;2023-03-03T14:25:26;7.97;;;4.55;;
56269;SDS011;42176;43.240;27.880;2023-03-03T14:28:12;10.40;;;5.70;;
56269;SDS011;42176;43.240;27.880;2023-03-03T14:30:39;9.43;;;5.18;;
56269;SDS011;42176;43.240;27.880;2023-03-03T14:35:41;12.07;;;5.57;;
56269;SDS011;42176;43.240;27.880;2023-03-03T14:38:23;11.95;;;5.93;;
56269;SDS011;42176;43.240;27.880;2023-03-03T14:43:39;9.75;;;5.20;;
56269;SDS011;42176;43.240;27.880;2023-03-03T14:48:58;7.95;;;5.20;;
56269;SDS011;42176;43.240;27.880;2023-03-03T14:54:20;10.57;;;5.88;;
56269;SDS011;42176;43.240;27.880;2023-03-03T14:59:39;7.82;;;5.63;;
56269;SDS011;42176;43.240;27.880;2023-03-03T15:05:37;9.10;;;4.97;;
56269;SDS011;42176;43.240;27.880;2023-03-03T15:08:13;14.10;;;5.95;;
56269;SDS011;42176;43.240;27.880;2023-03-03T15:10:40;14.48;;;5.68;;
56269;SDS011;42176;43.240;27.880;2023-03-03T15:18:23;12.65;;;5.80;;
56269;SDS011;42176;43.240;27.880;2023-03-03T15:21:01;10.18;;;5.57;;
56269;SDS011;42176;43.240;27.880;2023-03-03T15:32:03;15.18;;;7.25;;
56269;SDS011;42176;43.240;27.880;2023-03-03T15:57:16;16.95;;;9.40;;
56269;SDS011;42176;43.240;27.880;2023-03-03T16:03:13;13.73;;;6.28;;
56269;SDS011;42176;43.240;27.880;2023-03-03T16:05:53;18.70;;;9.63;;
56269;SDS011;42176;43.240;27.880;2023-03-03T16:08:23;15.77;;;9.98;;
56269;SDS011;42176;43.240;27.880;2023-03-03T16:11:07;19.33;;;8.55;;
56269;SDS011;42176;43.240;27.880;2023-03-03T16:13:49;20.60;;;7.28;;
56269;SDS011;42176;43.240;27.880;2023-03-03T16:27:18;12.25;;;7.45;;
56269;SDS011;42176;43.240;27.880;2023-03-03T16:38:37;18.65;;;10.27;;
56269;SDS011;42176;43.240;27.880;2023-03-03T16:41:08;20.10;;;11.63;;
56269;SDS011;42176;43.240;27.880;2023-03-03T16:51:48;12.43;;;7.00;;
56269;SDS011;42176;43.240;27.880;2023-03-03T16:54:34;21.08;;;9.00;;
56269;SDS011;42176;43.240;27.880;2023-03-03T16:57:10;22.73;;;12.88;;
56269;SDS011;42176;43.240;27.880;2023-03-03T17:05:05;17.77;;;9.38;;
56269;SDS011;42176;43.240;27.880;2023-03-03T17:07:53;25.92;;;13.43;;
56269;SDS011;42176;43.240;27.880;2023-03-03T17:16:34;20.67;;;10.18;;
56269;SDS011;42176;43.240;27.880;2023-03-03T17:35:45;25.98;;;13.23;;
56269;SDS011;42176;43.240;27.880;2023-03-03T17:44:10;25.92;;;10.88;;
56269;SDS011;42176;43.240;27.880;2023-03-03T17:46:45;22.90;;;11.75;;
56269;SDS011;42176;43.240;27.880;2023-03-03T17:49:34;35.08;;;17.05;;
56269;SDS011;42176;43.240;27.880;2023-03-03T17:54:39;24.98;;;11.70;;
56269;SDS011;42176;43.240;27.880;2023-03-03T18:00:23;21.20;;;12.85;;
56269;SDS011;42176;43.240;27.880;2023-03-03T18:08:00;57.70;;;28.60;;
56269;SDS011;42176;43.240;27.880;2023-03-03T18:13:13;31.45;;;14.55;;
56269;SDS011;42176;43.240;27.880;2023-03-03T18:24:34;32.63;;;16.35;;
56269;SDS011;42176;43.240;27.880;2023-03-03T18:32:58;34.90;;;14.02;;
56269;SDS011;42176;43.240;27.880;2023-03-03T18:37:57;34.95;;;18.08;;
56269;SDS011;42176;43.240;27.880;2023-03-03T18:40:49;27.92;;;13.80;;
56269;SDS011;42176;43.240;27.880;2023-03-03T18:48:53;37.17;;;17.48;;
56269;SDS011;42176;43.240;27.880;2023-03-03T18:53:59;42.83;;;21.23;;
56269;SDS011;42176;43.240;27.880;2023-03-03T18:59:06;15.25;;;6.93;;
56269;SDS011;42176;43.240;27.880;2023-03-03T19:01:34;17.80;;;8.23;;
56269;SDS011;42176;43.240;27.880;2023-03-03T19:09:03;18.38;;;7.70;;
56269;SDS011;42176;43.240;27.880;2023-03-03T19:11:38;19.77;;;8.55;;
56269;SDS011;42176;43.240;27.880;2023-03-03T19:17:40;22.00;;;11.60;;
56269;SDS011;42176;43.240;27.880;2023-03-03T19:25:17;21.45;;;10.15;;
56269;SDS011;42176;43.240;27.880;2023-03-03T19:30:46;21.65;;;9.93;;
56269;SDS011;42176;43.240;27.880;2023-03-03T19:35:44;24.15;;;9.75;;
56269;SDS011;42176;43.240;27.880;2023-03-03T19:43:46;18.67;;;9.15;;
56269;SDS011;42176;43.240;27.880;2023-03-03T19:46:38;22.23;;;11.10;;
56269;SDS011;42176;43.240;27.880;2023-03-03T20:00:37;31.05;;;13.52;;
56269;SDS011;42176;43.240;27.880;2023-03-03T20:17:16;34.83;;;15.18;;
56269;SDS011;42176;43.240;27.880;2023-03-03T20:25:58;17.05;;;9.68;;
56269;SDS011;42176;43.240;27.880;2023-03-03T20:31:24;29.88;;;13.77;;
56269;SDS011;42176;43.240;27.880;2023-03-03T20:33:56;35.97;;;19.17;;
56269;SDS011;42176;43.240;27.880;2023-03-03T20:37:06;29.77;;;13.73;;
56269;SDS011;42176;43.240;27.880;2023-03-03T20:42:02;33.15;;;19.08;;
56269;SDS011;42176;43.240;27.880;2023-03-03T20:48:21;27.60;;;12.25;;
56269;SDS011;42176;43.240;27.880;2023-03-03T21:01:29;30.08;;;12.15;;
56269;SDS011;42176;43.240;27.880;2023-03-03T21:06:48;32.90;;;17.00;;
56269;SDS011;42176;43.240;27.880;2023-03-03T21:09:33;19.50;;;10.57;;
56269;SDS011;42176;43.240;27.880;2023-03-03T21:12:03;20.48;;;10.73;;
56269;SDS011;42176;43.240;27.880;2023-03-03T21:14:36;26.95;;;14.77;;
56269;SDS011;42176;43.240;27.880;2023-03-03T21:19:50;27.50;;;10.07;;
56269;SDS011;42176;43.240;27.880;2023-03-03T21:22:16;20.45;;;9.90;;
56269;SDS011;42176;43.240;27.880;2023-03-03T21:24:45;24.17;;;10.50;;
56269;SDS011;42176;43.240;27.880;2023-03-03T21:27:24;26.90;;;14.38;;
56269;SDS011;42176;43.240;27.880;2023-03-03T21:32:47;24.15;;;10.80;;
56269;SDS011;42176;43.240;27.880;2023-03-03T21:35:14;22.92;;;10.95;;
56269;SDS011;42176;43.240;27.880;2023-03-03T21:37:59;26.13;;;12.25;;
56269;SDS011;42176;43.240;27.880;2023-03-03T21:40:29;22.50;;;11.23;;
56269;SDS011;42176;43.240;27.880;2023-03-03T21:42:55;33.22;;;16.45;;
56269;SDS011;42176;43.240;27.880;2023-03-03T21:45:23;25.00;;;11.98;;
56269;SDS011;42176;43.240;27.880;2023-03-03T21:47:49;21.65;;;11.10;;
56269;SDS011;42176;43.240;27.880;2023-03-03T21:50:15;24.65;;;12.32;;
56269;SDS011;42176;43.240;27.880;2023-03-03T21:52:44;32.08;;;15.85;;
56269;SDS011;42176;43.240;27.880;2023-03-03T21:55:09;20.17;;;10.13;;
56269;SDS011;42176;43.240;27.880;2023-03-03T21:57:35;22.90;;;11.60;;
56269;SDS011;42176;43.240;27.880;2023-03-03T22:00:01;29.42;;;13.18;;
56269;SDS011;42176;43.240;27.880;2023-03-03T22:02:31;31.00;;;16.95;;
56269;SDS011;42176;43.240;27.880;2023-03-03T22:04:57;10.30;;;6.55;;
56269;SDS011;42176;43.240;27.880;2023-03-03T22:07:23;26.80;;;13.27;;
56269;SDS011;42176;43.240;27.880;2023-03-03T22:09:49;22.02;;;11.20;;
56269;SDS011;42176;43.240;27.880;2023-03-03T22:12:14;27.20;;;11.63;;
56269;SDS011;42176;43.240;27.880;2023-03-03T22:14:39;25.95;;;15.65;;
56269;SDS011;42176;43.240;27.880;2023-03-03T22:17:05;15.55;;;8.73;;
56269;SDS011;42176;43.240;27.880;2023-03-03T22:19:30;26.52;;;12.35;;
56269;SDS011;42176;43.240;27.880;2023-03-03T22:21:58;27.73;;;13.07;;
56269;SDS011;42176;43.240;27.880;2023-03-03T22:24:23;33.22;;;16.60;;
56269;SDS011;42176;43.240;27.880;2023-03-03T22:26:49;31.20;;;17.95;;
56269;SDS011;42176;43.240;27.880;2023-03-03T22:29:14;32.75;;;14.38;;
56269;SDS011;42176;43.240;27.880;2023-03-03T22:31:41;32.30;;;14.85;;